Time;durP1;ratioP1;P1;durP2;ratioP2;P2;SDS_P1;SDS_P2;PMS_P1;PMS_P2;Temp;Humidity;BMP_temperature;BMP_pressure;BME280_temperature;BME280_humidity;BME280_pressure;Samples;Min_cycle;Max_cycle;Signal;HPM_P1;HPM_P2
2024/01/10 00:02:13;;;;;;;;;;;15.50;47.50;;;;;;10195034;28;93885;-60
2024/01/10 00:07:15;;;;;;;;;;;15.50;47.60;;;;;;10197534;28;92979;-60
2024/01/10 00:12:17;;;;;;;;;;;15.50;47.60;;;;;;10197387;28;94733;-60
2024/01/10 00:17:18;;;;;;;;;;;15.50;47.40;;;;;;10176781;28;94692;-60
2024/01/10 00:22:21;;;;;;;;;;;15.50;47.20;;;;;;10177099;28;98002;-60
2024/01/10 00:27:23;;;;;;;;;;;15.60;47.00;;;;;;10181256;28;93456;-60
2024/01/10 00:32:24;;;;;;;;;;;15.70;46.80;;;;;;10198153;28;94113;-60
2024/01/10 00:37:26;;;;;;;;;;;15.70;46.60;;;;;;10182832;28;94264;-60
2024/01/10 00:42:28;;;;;;;;;;;15.60;46.60;;;;;;10190273;28;94372;-59
2024/01/10 00:47:30;;;;;;;;;;;15.50;46.50;;;;;;10200509;28;94126;-61
2024/01/10 00:52:32;;;;;;;;;;;15.50;46.70;;;;;;10199235;28;95001;-61
2024/01/10 00:57:34;;;;;;;;;;;15.40;47.30;;;;;;10197806;28;92651;-60
2024/01/10 01:02:36;;;;;;;;;;;15.40;47.50;;;;;;10194986;28;94323;-60
2024/01/10 01:07:38;;;;;;;;;;;15.40;47.40;;;;;;10194950;28;94029;-59
2024/01/10 01:12:40;;;;;;;;;;;15.60;47.20;;;;;;10208174;28;96377;-61
2024/01/10 01:17:42;;;;;;;;;;;15.60;46.90;;;;;;10199158;28;93496;-60
2024/01/10 01:22:44;;;;;;;;;;;15.60;46.80;;;;;;10192563;28;93166;-60
2024/01/10 01:27:45;;;;;;;;;;;15.60;46.60;;;;;;10205098;28;94125;-61
2024/01/10 01:32:47;;;;;;;;;;;15.50;46.50;;;;;;10203110;28;93420;-60
2024/01/10 01:37:49;;;;;;;;;;;15.50;46.50;;;;;;10180952;28;94089;-61
2024/01/10 01:42:53;;;;;;;;;;;15.40;46.50;;;;;;10210850;28;93855;-61
2024/01/10 01:47:55;;;;;;;;;;;15.40;46.90;;;;;;10206323;28;94141;-60
2024/01/10 01:52:58;;;;;;;;;;;15.30;47.40;;;;;;10207789;28;94618;-61
2024/01/10 01:57:59;;;;;;;;;;;15.30;47.40;;;;;;10198917;28;93544;-61
2024/01/10 02:03:02;;;;;;;;;;;15.40;47.30;;;;;;10553801;23;97048;-53
2024/01/10 02:08:04;;;;;;;;;;;15.50;47.10;;;;;;10212550;28;94935;-42
2024/01/10 02:13:08;;;;;;;;;;;15.50;46.80;;;;;;10241304;28;93313;-43
2024/01/10 02:18:14;;;;;;;;;;;15.50;46.60;;;;;;10226646;28;93469;-44
2024/01/10 02:23:16;;;;;;;;;;;15.50;46.60;;;;;;10225006;28;94003;-43
2024/01/10 02:28:18;;;;;;;;;;;15.40;46.50;;;;;;10221725;28;93414;-43
2024/01/10 02:33:20;;;;;;;;;;;15.30;46.50;;;;;;10222509;28;94401;-46
2024/01/10 02:38:23;;;;;;;;;;;15.30;46.50;;;;;;10217181;28;92903;-42
2024/01/10 02:43:25;;;;;;;;;;;15.20;47.10;;;;;;10220684;28;93678;-44
2024/01/10 02:48:27;;;;;;;;;;;15.20;47.30;;;;;;10209809;28;93501;-43
2024/01/10 02:53:30;;;;;;;;;;;15.30;47.30;;;;;;10241181;28;95833;-42
2024/01/10 02:58:31;;;;;;;;;;;15.40;47.10;;;;;;10216404;28;93791;-42
2024/01/10 03:03:33;;;;;;;;;;;15.50;46.80;;;;;;10243316;28;93446;-43
2024/01/10 03:08:35;;;;;;;;;;;15.60;46.50;;;;;;10217713;28;93885;-44
2024/01/10 03:13:38;;;;;;;;;;;15.60;46.40;;;;;;10215591;28;94473;-43
2024/01/10 03:18:40;;;;;;;;;;;15.60;46.20;;;;;;10230423;28;93743;-47
2024/01/10 03:23:42;;;;;;;;;;;15.50;46.20;;;;;;10209755;28;93465;-43
2024/01/10 03:28:44;;;;;;;;;;;15.50;46.30;;;;;;10221021;28;93250;-44
2024/01/10 03:33:46;;;;;;;;;;;15.40;46.20;;;;;;10236811;28;94320;-43
2024/01/10 03:38:48;;;;;;;;;;;15.30;46.60;;;;;;10230079;28;93736;-45
2024/01/10 03:43:50;;;;;;;;;;;15.20;47.00;;;;;;10223106;28;96354;-45
2024/01/10 03:48:52;;;;;;;;;;;15.20;47.20;;;;;;10226006;28;94790;-43
2024/01/10 03:53:55;;;;;;;;;;;15.20;47.10;;;;;;10236011;28;93658;-42
2024/01/10 03:58:56;;;;;;;;;;;15.30;46.90;;;;;;10212852;28;93936;-46
2024/01/10 04:03:59;;;;;;;;;;;15.40;46.60;;;;;;10213676;28;95052;-44
2024/01/10 04:09:01;;;;;;;;;;;15.50;46.30;;;;;;10214499;28;93939;-46
2024/01/10 04:14:03;;;;;;;;;;;15.50;46.00;;;;;;10215287;28;93573;-47
2024/01/10 04:19:06;;;;;;;;;;;15.60;46.00;;;;;;10220350;28;93736;-45
2024/01/10 04:24:08;;;;;;;;;;;15.50;45.90;;;;;;10227697;28;94659;-47
2024/01/10 04:29:10;;;;;;;;;;;15.40;46.00;;;;;;10210578;28;93514;-45
2024/01/10 04:34:11;;;;;;;;;;;15.40;46.50;;;;;;10205434;28;96376;-47
2024/01/10 04:39:13;;;;;;;;;;;15.40;46.60;;;;;;10206865;28;93733;-42
2024/01/10 04:44:15;;;;;;;;;;;15.40;46.60;;;;;;10213718;28;93490;-41
2024/01/10 04:49:17;;;;;;;;;;;15.40;46.50;;;;;;10226277;28;93493;-48
2024/01/10 04:54:20;;;;;;;;;;;15.30;46.50;;;;;;10217245;28;93744;-60
2024/01/10 04:59:22;;;;;;;;;;;15.30;46.60;;;;;;10229822;28;94189;-42
2024/01/10 05:04:24;;;;;;;;;;;15.30;46.50;;;;;;10226794;28;94296;-44
2024/01/10 05:09:26;;;;;;;;;;;15.30;46.40;;;;;;10228869;28;92852;-43
2024/01/10 05:14:27;;;;;;;;;;;15.30;46.50;;;;;;10227242;28;93508;-51
2024/01/10 05:19:29;;;;;;;;;;;15.30;46.40;;;;;;10218834;28;93876;-45
2024/01/10 05:24:31;;;;;;;;;;;15.20;46.50;;;;;;10242023;28;95644;-42
2024/01/10 05:29:33;;;;;;;;;;;15.30;46.50;;;;;;10237155;28;93430;-42
2024/01/10 05:34:35;;;;;;;;;;;15.30;46.30;;;;;;10237682;28;93443;-43
2024/01/10 05:39:37;;;;;;;;;;;15.30;46.40;;;;;;10242861;28;93601;-41
2024/01/10 05:44:40;;;;;;;;;;;15.20;46.40;;;;;;10214219;28;93490;-43
2024/01/10 05:49:42;;;;;;;;;;;15.30;46.40;;;;;;10233503;28;94504;-41
2024/01/10 05:54:44;;;;;;;;;;;15.50;46.30;;;;;;10236868;28;97885;-43
2024/01/10 05:59:46;;;;;;;;;;;15.80;45.90;;;;;;10234766;28;93726;-44
2024/01/10 06:04:48;;;;;;;;;;;16.10;45.20;;;;;;10244631;28;93389;-42
2024/01/10 06:09:50;;;;;;;;;;;16.30;44.80;;;;;;10234832;28;94074;-45
2024/01/10 06:14:52;;;;;;;;;;;16.40;45.00;;;;;;10237221;28;95869;-45
2024/01/10 06:19:54;;;;;;;;;;;16.50;46.10;;;;;;10235341;28;93791;-44
2024/01/10 06:24:55;;;;;;;;;;;16.60;45.90;;;;;;10227008;28;93919;-46
2024/01/10 06:29:57;;;;;;;;;;;16.70;46.00;;;;;;10242271;28;93371;-44
2024/01/10 06:35:01;;;;;;;;;;;16.80;45.90;;;;;;10223479;28;93257;-43
2024/01/10 06:40:04;;;;;;;;;;;16.90;45.30;;;;;;10243011;28;94514;-51
2024/01/10 06:45:07;;;;;;;;;;;17.10;44.90;;;;;;10220809;28;93779;-44
2024/01/10 06:50:09;;;;;;;;;;;17.20;44.60;;;;;;10231401;28;96482;-47
2024/01/10 06:55:11;;;;;;;;;;;17.10;44.60;;;;;;10213983;28;93455;-47
2024/01/10 07:00:13;;;;;;;;;;;17.00;44.50;;;;;;10220711;28;92524;-44
2024/01/10 07:05:15;;;;;;;;;;;16.90;44.60;;;;;;10209122;28;96239;-55
2024/01/10 07:10:18;;;;;;;;;;;17.00;44.50;;;;;;10228536;28;94490;-47
2024/01/10 07:15:20;;;;;;;;;;;17.10;44.30;;;;;;10236250;28;93460;-47
2024/01/10 07:20:23;;;;;;;;;;;17.00;44.20;;;;;;10229684;28;93457;-48
2024/01/10 07:25:26;;;;;;;;;;;16.90;44.20;;;;;;10222137;28;93443;-45
2024/01/10 07:30:27;;;;;;;;;;;16.80;44.40;;;;;;10245108;28;93398;-44
2024/01/10 07:35:30;;;;;;;;;;;16.60;44.50;;;;;;10219576;28;94062;-46
2024/01/10 07:40:32;;;;;;;;;;;16.40;44.60;;;;;;10258277;28;93510;-47
2024/01/10 07:45:33;;;;;;;;;;;16.30;45.00;;;;;;10241322;28;93420;-49
2024/01/10 07:50:35;;;;;;;;;;;16.20;45.20;;;;;;10234404;28;93484;-47
2024/01/10 07:55:37;;;;;;;;;;;16.00;45.40;;;;;;10228492;28;95887;-46
2024/01/10 08:00:39;;;;;;;;;;;15.90;45.60;;;;;;10235665;28;94391;-46
2024/01/10 08:05:41;;;;;;;;;;;15.70;45.80;;;;;;10224117;28;93452;-49
2024/01/10 08:10:43;;;;;;;;;;;15.60;46.00;;;;;;10232004;28;93486;-48
2024/01/10 08:15:45;;;;;;;;;;;15.50;46.20;;;;;;10219746;28;94797;-47
2024/01/10 08:20:49;;;;;;;;;;;15.40;46.40;;;;;;10228698;28;115417;-47
2024/01/10 08:25:51;;;;;;;;;;;15.30;46.40;;;;;;10220902;28;93463;-44
2024/01/10 08:30:53;;;;;;;;;;;15.20;46.50;;;;;;10242409;28;93829;-43
2024/01/10 08:36:05;;;;;;;;;;;15.10;46.70;;;;;;10243221;28;93433;-45
2024/01/10 08:41:11;;;;;;;;;;;15.10;46.80;;;;;;10221279;28;94459;-57
2024/01/10 08:46:14;;;;;;;;;;;15.00;47.00;;;;;;10216616;28;96770;-43
2024/01/10 08:51:16;;;;;;;;;;;15.00;47.10;;;;;;10219575;28;93987;-48
2024/01/10 08:56:19;;;;;;;;;;;15.10;47.10;;;;;;10231275;28;94437;-44
2024/01/10 09:01:22;;;;;;;;;;;15.20;47.00;;;;;;10213191;28;93592;-45
2024/01/10 09:06:24;;;;;;;;;;;15.30;46.80;;;;;;10238803;28;93444;-46
2024/01/10 09:11:26;;;;;;;;;;;15.40;46.60;;;;;;10227366;28;94535;-48
2024/01/10 09:16:28;;;;;;;;;;;15.40;46.40;;;;;;10227996;28;93537;-43
2024/01/10 09:21:30;;;;;;;;;;;15.40;46.40;;;;;;10249160;28;92707;-49
2024/01/10 09:26:32;;;;;;;;;;;15.30;46.40;;;;;;10243673;28;93042;-43
2024/01/10 09:31:34;;;;;;;;;;;15.30;46.50;;;;;;10228991;28;93413;-43
2024/01/10 09:36:36;;;;;;;;;;;15.30;46.70;;;;;;10232817;28;96243;-53
2024/01/10 09:41:40;;;;;;;;;;;15.30;46.60;;;;;;10221283;28;93447;-49
2024/01/10 09:46:43;;;;;;;;;;;15.30;47.00;;;;;;10259963;28;95172;-46
2024/01/10 09:51:47;;;;;;;;;;;15.30;46.50;;;;;;10234066;28;93037;-49
2024/01/10 09:56:49;;;;;;;;;;;15.30;46.50;;;;;;10227061;28;94505;-45
2024/01/10 10:01:55;;;;;;;;;;;15.20;46.50;;;;;;10232762;28;93964;-45
2024/01/10 10:07:01;;;;;;;;;;;15.20;46.70;;;;;;10225806;28;93448;-46
2024/01/10 10:12:04;;;;;;;;;;;15.20;46.60;;;;;;10229872;28;92506;-49
2024/01/10 10:17:16;;;;;;;;;;;15.30;46.50;;;;;;10222900;28;94896;-45
2024/01/10 10:22:18;;;;;;;;;;;15.30;46.50;;;;;;10266599;28;93129;-44
2024/01/10 10:27:20;;;;;;;;;;;15.20;46.60;;;;;;10230533;28;96611;-44
2024/01/10 10:32:22;;;;;;;;;;;15.20;46.70;;;;;;10223829;28;92484;-46
2024/01/10 10:37:24;;;;;;;;;;;15.20;46.90;;;;;;10246442;28;93593;-43
2024/01/10 10:42:28;;;;;;;;;;;15.20;46.80;;;;;;10248083;28;94339;-48
2024/01/10 10:47:32;;;;;;;;;;;15.20;46.70;;;;;;10228155;28;93414;-46
2024/01/10 10:52:35;;;;;;;;;;;15.20;46.70;;;;;;10240338;28;94204;-45
2024/01/10 10:57:37;;;;;;;;;;;15.10;46.80;;;;;;10235736;28;93444;-46
2024/01/10 11:02:39;;;;;;;;;;;15.10;47.00;;;;;;10237432;28;92727;-43
2024/01/10 11:07:41;;;;;;;;;;;15.20;47.00;;;;;;10233741;28;93570;-45
2024/01/10 11:12:55;;;;;;;;;;;15.20;46.90;;;;;;10224437;28;93498;-44
2024/01/10 11:18:06;;;;;;;;;;;15.20;46.90;;;;;;10222413;28;95477;-48
2024/01/10 11:23:29;;;;;;;;;;;15.10;47.00;;;;;;10238625;28;94680;-45
2024/01/10 11:28:31;;;;;;;;;;;15.10;47.10;;;;;;10231586;28;94587;-45
2024/01/10 11:33:40;;;;;;;;;;;15.10;47.10;;;;;;10231808;28;93387;-44
2024/01/10 11:38:53;;;;;;;;;;;15.10;47.00;;;;;;10231483;28;93429;-44
2024/01/10 11:44:15;;;;;;;;;;;15.10;46.90;;;;;;10243602;28;93675;-47
2024/01/10 11:49:18;;;;;;;;;;;15.10;47.00;;;;;;10229899;28;93919;-49
2024/01/10 11:54:40;;;;;;;;;;;15.10;47.10;;;;;;10234524;28;93058;-46
2024/01/10 11:59:44;;;;;;;;;;;15.10;47.10;;;;;;10222169;28;94486;-44
2024/01/10 12:04:46;;;;;;;;;;;15.20;47.20;;;;;;10239057;28;94794;-47
2024/01/10 12:09:49;;;;;;;;;;;15.10;47.00;;;;;;10218638;28;96817;-43
2024/01/10 12:14:51;;;;;;;;;;;15.10;47.00;;;;;;10219799;28;93462;-46
2024/01/10 12:19:53;;;;;;;;;;;15.10;47.10;;;;;;10222072;28;93459;-43
2024/01/10 12:24:55;;;;;;;;;;;15.10;47.30;;;;;;10239941;28;94599;-45
2024/01/10 12:30:02;;;;;;;;;;;15.10;47.20;;;;;;10233122;28;93692;-46
2024/01/10 12:35:04;;;;;;;;;;;15.10;47.10;;;;;;10254946;28;93654;-43
2024/01/10 12:40:07;;;;;;;;;;;15.10;47.10;;;;;;10242310;28;94987;-45
2024/01/10 12:45:21;;;;;;;;;;;15.00;47.20;;;;;;10205386;28;93757;-47
2024/01/10 12:50:25;;;;;;;;;;;15.10;47.30;;;;;;10215906;28;93585;-47
2024/01/10 12:55:27;;;;;;;;;;;15.00;47.30;;;;;;10205616;28;93498;-47
2024/01/10 13:00:30;;;;;;;;;;;15.10;47.30;;;;;;10215762;28;96418;-42
2024/01/10 13:05:31;;;;;;;;;;;15.10;47.20;;;;;;10218043;28;93482;-44
2024/01/10 13:10:33;;;;;;;;;;;15.10;47.20;;;;;;10228799;28;93685;-48
2024/01/10 13:15:35;;;;;;;;;;;15.00;47.20;;;;;;10240457;28;93629;-46
2024/01/10 13:20:37;;;;;;;;;;;15.00;47.40;;;;;;10220389;28;93520;-48
2024/01/10 13:25:39;;;;;;;;;;;15.10;47.50;;;;;;10233117;28;94717;-45
2024/01/10 13:30:42;;;;;;;;;;;15.10;47.40;;;;;;10228323;28;94264;-46
2024/01/10 13:35:44;;;;;;;;;;;15.10;47.40;;;;;;10206881;28;93392;-45
2024/01/10 13:40:46;;;;;;;;;;;15.00;47.40;;;;;;10220426;28;93533;-46
2024/01/10 13:45:48;;;;;;;;;;;15.00;47.40;;;;;;10215553;28;93853;-46
2024/01/10 13:50:50;;;;;;;;;;;14.90;47.60;;;;;;10228994;28;96973;-45
2024/01/10 13:55:52;;;;;;;;;;;15.00;47.70;;;;;;10235314;28;93588;-50
2024/01/10 14:00:54;;;;;;;;;;;15.00;47.50;;;;;;10225112;28;94185;-50
2024/01/10 14:05:56;;;;;;;;;;;15.00;47.60;;;;;;10213264;28;94107;-47
2024/01/10 14:10:58;;;;;;;;;;;14.90;47.50;;;;;;10220437;28;93484;-48
2024/01/10 14:16:00;;;;;;;;;;;14.90;47.70;;;;;;10240475;28;93711;-46
2024/01/10 14:21:02;;;;;;;;;;;14.90;47.70;;;;;;10234139;28;94152;-47
2024/01/10 14:26:05;;;;;;;;;;;15.00;47.60;;;;;;10246701;28;93723;-44
2024/01/10 14:31:07;;;;;;;;;;;15.10;47.50;;;;;;10224060;28;94097;-44
2024/01/10 14:36:23;;;;;;;;;;;15.10;47.20;;;;;;10223359;28;95273;-46
2024/01/10 14:41:25;;;;;;;;;;;15.20;47.20;;;;;;10230299;28;96825;-45
2024/01/10 14:46:28;;;;;;;;;;;15.10;47.00;;;;;;10237328;28;94861;-46
2024/01/10 14:51:30;;;;;;;;;;;15.10;47.10;;;;;;10235677;28;94275;-46
2024/01/10 14:56:32;;;;;;;;;;;15.00;47.20;;;;;;10221183;28;94501;-47
2024/01/10 15:01:34;;;;;;;;;;;15.10;47.10;;;;;;10243286;28;93448;-45
2024/01/10 15:06:35;;;;;;;;;;;15.10;47.00;;;;;;10225116;28;93313;-45
2024/01/10 15:11:38;;;;;;;;;;;15.10;47.00;;;;;;10229725;28;94895;-43
2024/01/10 15:16:40;;;;;;;;;;;15.00;47.00;;;;;;10228211;28;92691;-44
2024/01/10 15:21:42;;;;;;;;;;;15.00;47.10;;;;;;10239892;28;93318;-42
2024/01/10 15:26:44;;;;;;;;;;;15.00;47.10;;;;;;10234162;28;93423;-45
2024/01/10 15:31:46;;;;;;;;;;;15.10;47.10;;;;;;10223615;28;96041;-46
2024/01/10 15:36:48;;;;;;;;;;;15.00;47.00;;;;;;10221004;28;93483;-42
2024/01/10 15:41:50;;;;;;;;;;;15.00;47.10;;;;;;10242199;28;94450;-44
2024/01/10 15:46:52;;;;;;;;;;;15.00;47.20;;;;;;10211671;28;93498;-43
2024/01/10 15:51:54;;;;;;;;;;;15.00;47.10;;;;;;10235049;28;93838;-44
2024/01/10 15:56:56;;;;;;;;;;;15.00;47.10;;;;;;10233954;28;93440;-45
2024/01/10 16:01:57;;;;;;;;;;;15.00;47.00;;;;;;10233876;28;92962;-45
2024/01/10 16:06:59;;;;;;;;;;;15.00;46.90;;;;;;10218088;28;93907;-45
2024/01/10 16:12:01;;;;;;;;;;;15.00;47.10;;;;;;10218590;28;92650;-47
2024/01/10 16:17:03;;;;;;;;;;;15.10;47.10;;;;;;10229100;28;93801;-43
2024/01/10 16:22:05;;;;;;;;;;;15.30;46.90;;;;;;10239112;28;95821;-44
2024/01/10 16:27:07;;;;;;;;;;;15.70;46.70;;;;;;10219630;28;93964;-42
2024/01/10 16:32:09;;;;;;;;;;;16.10;49.80;;;;;;10223101;28;94014;-42
2024/01/10 16:37:11;;;;;;;;;;;16.30;48.50;;;;;;10237427;28;94516;-46
2024/01/10 16:42:14;;;;;;;;;;;16.60;47.80;;;;;;10242319;28;94120;-44
2024/01/10 16:47:16;;;;;;;;;;;16.80;47.60;;;;;;10224676;28;92908;-45
2024/01/10 16:52:18;;;;;;;;;;;17.00;47.90;;;;;;10227714;28;93639;-43
2024/01/10 16:57:21;;;;;;;;;;;17.20;48.60;;;;;;10232280;28;93020;-42
2024/01/10 17:02:23;;;;;;;;;;;17.40;49.10;;;;;;10232496;28;94666;-44
2024/01/10 17:07:24;;;;;;;;;;;17.60;48.50;;;;;;10233800;28;94167;-43
2024/01/10 17:12:26;;;;;;;;;;;17.80;48.50;;;;;;10227574;28;95861;-42
2024/01/10 17:17:28;;;;;;;;;;;17.80;50.00;;;;;;10217368;28;93408;-45
2024/01/10 17:22:31;;;;;;;;;;;17.70;50.90;;;;;;10216282;28;94194;-47
2024/01/10 17:27:37;;;;;;;;;;;17.60;52.70;;;;;;10219463;28;93161;-46
2024/01/10 17:32:39;;;;;;;;;;;17.60;53.60;;;;;;10226636;28;94288;-47
2024/01/10 17:37:41;;;;;;;;;;;17.70;53.80;;;;;;10230483;28;95081;-46
2024/01/10 17:42:43;;;;;;;;;;;17.80;53.50;;;;;;10244432;28;93763;-46
2024/01/10 17:47:44;;;;;;;;;;;18.00;53.30;;;;;;10247775;28;93371;-46
2024/01/10 17:52:46;;;;;;;;;;;18.20;51.90;;;;;;10237318;28;94599;-46
2024/01/10 17:57:48;;;;;;;;;;;18.50;51.10;;;;;;10236143;28;94012;-45
2024/01/10 18:02:50;;;;;;;;;;;18.60;50.40;;;;;;10241924;28;96843;-45
2024/01/10 18:07:52;;;;;;;;;;;18.80;50.00;;;;;;10244922;28;93130;-44
2024/01/10 18:12:57;;;;;;;;;;;18.90;49.60;;;;;;10236465;28;93676;-44
2024/01/10 18:17:59;;;;;;;;;;;19.00;49.50;;;;;;10243775;28;94013;-46
2024/01/10 18:23:01;;;;;;;;;;;19.00;49.50;;;;;;10235669;28;94039;-45
2024/01/10 18:28:03;;;;;;;;;;;19.10;49.60;;;;;;10224841;28;93655;-43
2024/01/10 18:33:05;;;;;;;;;;;19.10;49.80;;;;;;10245725;28;94994;-47
2024/01/10 18:38:07;;;;;;;;;;;19.10;49.30;;;;;;10226546;28;92577;-45
2024/01/10 18:43:10;;;;;;;;;;;19.00;49.10;;;;;;10237664;28;94162;-42
2024/01/10 18:48:12;;;;;;;;;;;18.90;49.10;;;;;;10246126;28;93466;-42
2024/01/10 18:53:15;;;;;;;;;;;18.80;49.10;;;;;;10231343;28;96886;-44
2024/01/10 18:58:17;;;;;;;;;;;18.80;48.80;;;;;;10235725;28;93831;-44
2024/01/10 19:03:19;;;;;;;;;;;18.90;48.90;;;;;;10241803;28;94768;-46
2024/01/10 19:08:21;;;;;;;;;;;18.90;49.00;;;;;;10233432;28;94709;-43
2024/01/10 19:13:23;;;;;;;;;;;18.90;51.30;;;;;;10225491;28;95422;-45
2024/01/10 19:18:25;;;;;;;;;;;19.00;50.40;;;;;;10240713;28;93474;-47
2024/01/10 19:23:27;;;;;;;;;;;19.10;49.80;;;;;;10241997;28;94168;-43
2024/01/10 19:28:28;;;;;;;;;;;19.10;49.50;;;;;;10239127;28;92643;-47
2024/01/10 19:33:30;;;;;;;;;;;19.10;49.40;;;;;;10249749;28;93687;-45
2024/01/10 19:38:32;;;;;;;;;;;19.00;49.80;;;;;;10243267;28;93621;-44
2024/01/10 19:43:34;;;;;;;;;;;18.90;49.60;;;;;;10243474;28;95795;-42
2024/01/10 19:48:36;;;;;;;;;;;18.90;49.70;;;;;;10247096;28;93389;-42
2024/01/10 19:53:38;;;;;;;;;;;18.90;49.50;;;;;;10228515;28;94244;-43
2024/01/10 19:58:40;;;;;;;;;;;19.00;49.30;;;;;;10226169;28;94923;-42
2024/01/10 20:03:41;;;;;;;;;;;19.00;49.10;;;;;;10239881;28;93475;-45
2024/01/10 20:08:44;;;;;;;;;;;19.10;48.90;;;;;;10239600;28;94223;-44
2024/01/10 20:13:46;;;;;;;;;;;19.00;48.70;;;;;;10230982;28;94471;-45
2024/01/10 20:18:48;;;;;;;;;;;18.90;48.80;;;;;;10247150;28;93088;-47
2024/01/10 20:23:51;;;;;;;;;;;18.90;49.00;;;;;;10248690;28;94268;-43
2024/01/10 20:28:53;;;;;;;;;;;18.90;49.10;;;;;;10239838;28;93680;-46
2024/01/10 20:33:55;;;;;;;;;;;18.90;49.00;;;;;;10238662;28;96530;-44
2024/01/10 20:38:58;;;;;;;;;;;19.00;48.70;;;;;;10231387;28;94679;-47
2024/01/10 20:43:59;;;;;;;;;;;19.00;48.50;;;;;;10241921;28;93762;-46
2024/01/10 20:49:01;;;;;;;;;;;18.90;48.50;;;;;;10238363;28;94098;-48
2024/01/10 20:54:03;;;;;;;;;;;18.80;48.60;;;;;;10239940;28;93584;-44
2024/01/10 20:59:05;;;;;;;;;;;18.70;48.90;;;;;;10227097;28;94960;-44
2024/01/10 21:04:07;;;;;;;;;;;18.50;49.20;;;;;;10245197;28;93629;-43
2024/01/10 21:09:09;;;;;;;;;;;18.30;49.40;;;;;;10232024;28;93786;-44
2024/01/10 21:14:11;;;;;;;;;;;18.10;49.60;;;;;;10230441;28;93480;-44
2024/01/10 21:19:13;;;;;;;;;;;17.90;49.70;;;;;;10232603;28;93432;-44
2024/01/10 21:24:16;;;;;;;;;;;17.70;49.80;;;;;;10231017;28;96888;-44
2024/01/10 21:29:18;;;;;;;;;;;17.60;50.10;;;;;;10235542;28;93440;-45
2024/01/10 21:34:20;;;;;;;;;;;17.40;50.60;;;;;;10242156;28;93840;-46
2024/01/10 21:39:23;;;;;;;;;;;17.30;50.80;;;;;;10235691;28;93692;-42
2024/01/10 21:44:24;;;;;;;;;;;17.10;50.30;;;;;;10230067;28;93499;-44
2024/01/10 21:49:26;;;;;;;;;;;17.00;50.30;;;;;;10233753;28;94104;-44
2024/01/10 21:54:28;;;;;;;;;;;16.90;50.40;;;;;;10244389;28;93713;-46
2024/01/10 21:59:30;;;;;;;;;;;16.70;50.30;;;;;;10228316;28;94030;-42
2024/01/10 22:04:33;;;;;;;;;;;16.60;50.40;;;;;;10252517;28;95234;-42
2024/01/10 22:09:35;;;;;;;;;;;16.50;50.40;;;;;;10229375;28;93439;-44
2024/01/10 22:14:37;;;;;;;;;;;16.40;50.30;;;;;;10235698;28;96839;-42
2024/01/10 22:19:39;;;;;;;;;;;16.30;50.20;;;;;;10245222;28;93663;-47
2024/01/10 22:24:42;;;;;;;;;;;16.30;50.20;;;;;;10245114;28;93465;-42
2024/01/10 22:29:44;;;;;;;;;;;16.20;50.20;;;;;;10230354;28;93473;-44
2024/01/10 22:34:46;;;;;;;;;;;16.10;50.10;;;;;;10243802;28;93356;-43
2024/01/10 22:39:48;;;;;;;;;;;16.10;50.10;;;;;;10244260;28;94442;-43
2024/01/10 22:44:50;;;;;;;;;;;16.00;50.00;;;;;;10239110;28;94489;-43
2024/01/10 22:49:51;;;;;;;;;;;15.90;50.00;;;;;;10244160;28;92869;-41
2024/01/10 22:54:53;;;;;;;;;;;15.80;50.00;;;;;;10237847;28;94667;-43
2024/01/10 22:59:55;;;;;;;;;;;15.90;50.20;;;;;;10257514;28;93449;-43
2024/01/10 23:04:57;;;;;;;;;;;15.90;50.00;;;;;;10240964;28;95889;-45
2024/01/10 23:10:00;;;;;;;;;;;16.00;49.80;;;;;;10237988;28;93021;-46
2024/01/10 23:15:01;;;;;;;;;;;16.10;49.30;;;;;;10228653;28;93940;-42
2024/01/10 23:20:03;;;;;;;;;;;16.10;49.00;;;;;;10230568;28;93944;-42
2024/01/10 23:25:05;;;;;;;;;;;16.10;48.80;;;;;;10236185;28;92892;-44
2024/01/10 23:30:08;;;;;;;;;;;16.10;48.50;;;;;;10240408;28;93785;-44
2024/01/10 23:35:11;;;;;;;;;;;16.10;48.30;;;;;;10232835;28;93878;-42
2024/01/10 23:40:15;;;;;;;;;;;16.00;48.20;;;;;;10248568;28;92715;-41
2024/01/10 23:45:17;;;;;;;;;;;15.90;48.00;;;;;;10242414;28;93457;-44
2024/01/10 23:50:19;;;;;;;;;;;15.90;47.90;;;;;;10239740;28;93469;-47
2024/01/10 23:55:20;;;;;;;;;;;15.80;49.10;;;;;;10237074;28;95904;-46
